• Join FlightAware (Why Join?)
  • Login
  • US Flag 
04:41PM EST


 

Airport Tracker/Info


-or-


 

Live Flight TrackerFlight Track Log ✈ N3745Q ✈ 12-Feb-2014 ✈ KVRB - KAPF

Flight Track Log - Related Links

Times and Time Zones

All times are in EST time to prevent confusion due to time zone crossing. See the N3745Q flight status page for this flight to view local times or setup timezone preferences in your user account.

Time Position Orientation Groundspeed Altitude Reporting Facility
EST Latitude Longitude Course Direction KTS MPH feet Rate Location/Type
11:56AM 27.6522 -80.4672 222° Southwest 119 137 1,400  Level Miami Center
11:57AM 27.6578 -80.4931 284° West 96 110 1,900 3,300 Climbing Miami Center
11:58AM 27.6592 -80.5167 274° West 88 101 8,000 480 Climbing Miami Center
11:59AM 27.6606 -80.5425 273° West 88 101 2,900 -2,340 Descending Miami Center
12:00PM 27.6622 -80.5658 275° West 83 96 3,400 480 Climbing Miami Center
12:01PM 27.5798 -80.5702 222° Southwest  Level FlightAware Approximate
12:01PM 27.6636 -80.5894 274° West 83 96 3,900  Level Miami Center
12:02PM 27.6631 -80.6106 268° West 83 96 4,300 420 Climbing Miami Center
12:03PM 27.6606 -80.6292 261° West 139 160 4,800 540 Climbing Miami Center
12:04PM 27.6414 -80.6356 196° South 83 96 5,400 600 Climbing Miami Center
12:05PM 27.6289 -80.6444 212° Southwest 73 84 6,000 240 Climbing Miami Center
12:06PM 27.6075 -80.6625 217° Southwest 126 145 5,900  Descending Miami Center
12:07PM 27.5861 -80.6783 213° Southwest 111 128 6,000  Climbing Miami Center
12:08PM 27.5606 -80.6961 212° Southwest 105 121 5,900 -60 Descending Miami Center
12:09PM 27.5350 -80.7164 215° Southwest 105 121 5,900  Level Miami Center
12:10PM 27.5114 -80.7367 217° Southwest 110 127 5,900  Level Miami Center
12:11PM 27.4858 -80.7544 212° Southwest 110 127 6,000  Climbing Miami Center
12:12PM 27.4625 -80.7725 214° Southwest 110 127 5,900  Descending Miami Center
12:13PM 27.4369 -80.7903 212° Southwest 110 127 6,000  Climbing Miami Center
12:14PM 27.4136 -80.8106 218° Southwest 110 127 6,000  Level Miami Center
12:15PM 27.3881 -80.8261 208° Southwest 110 127 6,000  Level Miami Center
12:16PM 27.3644 -80.8464 217° Southwest 110 127 6,000  Level Miami Center
12:17PM 27.3431 -80.8642 216° Southwest 110 127 6,000  Level Miami Center
12:18PM 27.3156 -80.8819 210° Southwest 110 127 6,000  Level Miami Center
12:19PM 27.2942 -80.9022 220° Southwest 105 121 6,000  Level Miami Center
12:20PM 27.2747 -80.9225 223° Southwest 110 127 6,000  Level Miami Center
12:21PM 27.2550 -80.9500 231° Southwest 110 127 6,000  Level Miami Center
12:22PM 27.2378 -80.9750 232° Southwest 115 132 6,000  Level Miami Center
12:23PM 27.2183 -81.0000 229° Southwest 115 132 6,000  Level Miami Center
12:24PM 27.1944 -81.0247 223° Southwest 110 127 6,000  Level Miami Center
12:25PM 27.1689 -81.0425 212° Southwest 110 127 6,000  Level Miami Center
12:26PM 27.1433 -81.0628 215° Southwest 110 127 6,000  Level Miami Center
12:27PM 27.1281 -81.0831 230° Southwest 105 121 6,000  Level Miami Center
12:28PM 27.1086 -81.1103 231° Southwest 105 121 6,000  Level Miami Center
12:29PM 27.0828 -81.1328 218° Southwest 105 121 6,000  Level Miami Center
12:30PM 27.0614 -81.1553 223° Southwest 115 132 6,000  Level Miami Center
12:31PM 27.0378 -81.1778 220° Southwest 115 132 6,000  Level Miami Center
12:32PM 27.0161 -81.2003 223° Southwest 115 132 6,000  Level Miami Center
12:33PM 26.9967 -81.2228 226° Southwest 115 132 6,000  Level Miami Center
12:34PM 26.9750 -81.2500 228° Southwest 115 132 6,000  Level Miami Center
12:35PM 26.9533 -81.2700 219° Southwest 115 132 6,000  Level Miami Center
12:36PM 26.9319 -81.2903 220° Southwest 115 132 6,000  Level Miami Center
12:37PM 26.9083 -81.3128 220° Southwest 115 132 6,000  Level Miami Center
12:38PM 26.8869 -81.3328 220° Southwest 115 132 6,000  Level Miami Center
12:39PM 26.8631 -81.3597 225° Southwest 115 132 6,000  Level Miami Center
12:40PM 26.8394 -81.3753 210° Southwest 115 132 6,100  Climbing Miami Center
12:41PM 26.8139 -81.3953 215° Southwest 115 132 6,000 -60 Descending Miami Center
12:42PM 26.7842 -81.4081 201° Southwest 110 127 6,000  Level Miami Center
12:44PM 26.7527 -81.4262 207° Southwest  Level FlightAware Approximate
12:51PM 26.5662 -81.5334 207° Southwest  Level FlightAware Approximate
12:52PM 26.5396 -81.5487 207° Southwest  Level FlightAware Approximate
12:53PM 26.5130 -81.5639 207° Southwest  Level FlightAware Approximate
12:54PM 26.4863 -81.5792 207° Southwest  Level FlightAware Approximate
12:55PM 26.4597 -81.5945 207° Southwest  Level FlightAware Approximate
12:56PM 26.4325 -81.6087 204° Southwest  Level FlightAware Approximate
12:57PM 26.4052 -81.6224 204° Southwest  Level FlightAware Approximate
12:58PM 26.3781 -81.6365 208° Southwest  Level FlightAware Approximate
12:59PM 26.3517 -81.6523 208° Southwest  Level FlightAware Approximate
01:00PM 26.3253 -81.6682 208° Southwest  Level FlightAware Approximate
01:01PM 26.2990 -81.6840 208° Southwest  Level FlightAware Approximate
01:02PM 26.2726 -81.6998 208° Southwest  Level FlightAware Approximate
01:03PM 26.2462 -81.7156 208° Southwest  Level FlightAware Approximate
01:04PM 26.2198 -81.7314 208° Southwest  Level FlightAware Approximate
01:05PM 26.1926 -81.7454 204° Southwest  Level FlightAware Approximate
01:06PM 26.1653 -81.7590 204° Southwest  Level FlightAware Approximate
01:07PM 26.1500 -81.7667 204° Southwest  Level FlightAware Approximate
01:08PM 26.1524 -81.7756 204° Southwest  Level Estimated
01:09PM 26.1524 -81.7756 204° Southwest  Level Estimated
01:10PM 26.1524 -81.7756 204° Southwest  Level Estimated
01:11PM 26.1524 -81.7756 204° Southwest  Level Estimated
01:12PM 26.1524 -81.7756 204° Southwest  Level Estimated
01:13PM 26.1524 -81.7756 204° Southwest  Level Estimated
01:14PM 26.1524 -81.7756 204° Southwest  Level Estimated
01:15PM 26.1524 -81.7756 204° Southwest  Level Estimated